Time;durP1;ratioP1;P1;durP2;ratioP2;P2;SDS_P1;SDS_P2;PMS_P1;PMS_P2;Temp;Humidity;BMP_temperature;BMP_pressure;BME280_temperature;BME280_humidity;BME280_pressure;Samples;Min_cycle;Max_cycle;Signal;HPM_P1;HPM_P2
2021/03/20 00:01:23;;;;;;;11.00;6.90;;;5.40;87.90;;;;;;5077129;28;20172;-80
2021/03/20 00:03:49;;;;;;;14.33;7.53;;;5.40;87.20;;;;;;5076850;28;20323;-84
2021/03/20 00:06:18;;;;;;;12.63;6.67;;;5.40;87.90;;;;;;5077758;28;20172;-78
2021/03/20 00:08:45;;;;;;;13.90;7.07;;;5.40;88.70;;;;;;5075621;28;20509;-82
2021/03/20 00:11:12;;;;;;;12.43;7.50;;;5.20;89.30;;;;;;5075718;28;20207;-81
2021/03/20 00:13:38;;;;;;;10.43;7.83;;;5.40;90.10;;;;;;5075380;28;20169;-79
2021/03/20 00:16:04;;;;;;;15.97;7.27;;;5.40;90.10;;;;;;5075388;28;20168;-80
2021/03/20 00:18:29;;;;;;;16.00;9.20;;;5.30;91.10;;;;;;5056430;28;20652;-82
2021/03/20 00:20:55;;;;;;;12.70;8.30;;;5.30;91.80;;;;;;5074946;28;20164;-80
2021/03/20 00:23:21;;;;;;;11.67;8.13;;;5.30;91.80;;;;;;5057202;28;20249;-78
2021/03/20 00:25:47;;;;;;;13.27;8.00;;;5.20;92.30;;;;;;5073468;28;20208;-77
2021/03/20 00:28:21;;;;;;;12.27;8.53;;;5.10;93.00;;;;;;5078748;28;20179;-80
2021/03/20 00:30:48;;;;;;;15.83;9.20;;;5.10;93.40;;;;;;5072585;28;20172;-80
2021/03/20 00:33:14;;;;;;;12.33;9.30;;;5.10;93.90;;;;;;5073861;28;20167;-84
2021/03/20 00:35:40;;;;;;;15.60;8.97;;;5.10;94.40;;;;;;5074408;28;20247;-86
2021/03/20 00:38:05;;;;;;;11.10;8.27;;;5.20;94.20;;;;;;5075192;28;20654;-79
2021/03/20 00:40:31;;;;;;;15.83;9.13;;;5.20;93.60;;;;;;5056480;28;20176;-77
2021/03/20 00:42:58;;;;;;;12.77;9.00;;;5.30;93.20;;;;;;5057191;28;20196;-83
2021/03/20 00:45:26;;;;;;;13.43;9.73;;;5.20;93.60;;;;;;5056648;28;20254;-82
2021/03/20 00:47:52;;;;;;;13.70;9.57;;;5.20;93.70;;;;;;5074566;28;20169;-77
2021/03/20 00:50:21;;;;;;;12.30;9.73;;;5.20;93.80;;;;;;5074565;28;20199;-78
2021/03/20 00:52:47;;;;;;;13.60;9.47;;;5.30;93.90;;;;;;5074328;28;20177;-78
2021/03/20 00:55:14;;;;;;;14.77;10.20;;;5.30;93.90;;;;;;5074938;28;20277;-79
2021/03/20 00:57:40;;;;;;;21.87;10.83;;;5.30;94.30;;;;;;5074428;28;20177;-84
2021/03/20 01:00:19;;;;;;;14.83;10.77;;;5.20;94.80;;;;;;5074603;28;20172;-83
2021/03/20 01:02:45;;;;;;;18.27;11.90;;;5.20;95.50;;;;;;5074154;28;20202;-82
2021/03/20 01:05:11;;;;;;;15.63;10.50;;;5.20;95.30;;;;;;5074379;28;20239;-81
2021/03/20 01:07:37;;;;;;;19.77;10.93;;;5.10;95.60;;;;;;5074449;28;20169;-78
2021/03/20 01:10:10;;;;;;;13.73;10.07;;;5.10;95.70;;;;;;5074779;28;20693;-77
2021/03/20 01:12:36;;;;;;;14.33;10.43;;;5.10;96.00;;;;;;5074133;28;20164;-78
2021/03/20 01:15:03;;;;;;;12.87;10.03;;;5.10;95.70;;;;;;5074182;28;20168;-85
2021/03/20 01:17:28;;;;;;;14.27;10.07;;;5.00;95.80;;;;;;5073822;28;20169;-84
2021/03/20 01:19:54;;;;;;;13.83;10.20;;;5.00;95.90;;;;;;5074211;28;20238;-86
2021/03/20 01:22:20;;;;;;;15.40;11.00;;;5.00;96.20;;;;;;5056435;28;20203;-78
2021/03/20 01:24:46;;;;;;;20.63;11.13;;;5.00;96.20;;;;;;5074162;28;20287;-82
2021/03/20 01:27:12;;;;;;;16.33;10.23;;;4.90;96.30;;;;;;5074093;28;20689;-84
2021/03/20 01:29:37;;;;;;;17.03;10.97;;;4.90;96.20;;;;;;5055568;28;20214;-76
2021/03/20 01:32:03;;;;;;;16.00;10.77;;;5.00;96.20;;;;;;5073985;28;20172;-78
2021/03/20 01:34:29;;;;;;;13.07;10.00;;;4.90;95.80;;;;;;5073891;28;20199;-78
2021/03/20 01:36:54;;;;;;;16.73;11.20;;;4.90;95.90;;;;;;5073769;28;20183;-81
2021/03/20 01:39:20;;;;;;;16.43;10.07;;;4.90;96.00;;;;;;5055858;28;20184;-81
2021/03/20 01:41:46;;;;;;;12.30;9.50;;;4.90;96.10;;;;;;5073372;28;20203;-85
2021/03/20 01:44:20;;;;;;;14.83;10.17;;;4.80;96.20;;;;;;5073440;28;20199;-86
2021/03/20 01:46:54;;;;;;;14.23;10.67;;;4.80;96.40;;;;;;5054023;28;20196;-79
2021/03/20 01:49:26;;;;;;;14.23;10.07;;;4.80;96.30;;;;;;5074300;28;20172;-77
2021/03/20 01:52:28;;;;;;;17.87;10.80;;;4.70;96.40;;;;;;5072548;28;20183;-83
2021/03/20 01:55:04;;;;;;;16.07;10.47;;;4.70;96.60;;;;;;5073700;28;20168;-87
2021/03/20 01:57:38;;;;;;;13.67;9.63;;;4.70;96.20;;;;;;5073525;28;20183;-78
2021/03/20 02:00:14;;;;;;;16.80;10.27;;;4.70;96.10;;;;;;5073536;28;20690;-80
2021/03/20 02:02:41;;;;;;;13.57;9.40;;;4.60;96.30;;;;;;5055666;28;20232;-78
2021/03/20 02:05:11;;;;;;;14.10;9.87;;;4.60;96.50;;;;;;5073511;28;20203;-87
2021/03/20 02:07:36;;;;;;;18.73;9.77;;;4.60;96.20;;;;;;5073323;28;20202;-76
2021/03/20 02:10:03;;;;;;;17.50;11.13;;;4.60;96.30;;;;;;5073543;28;20184;-79
2021/03/20 02:12:34;;;;;;;15.97;10.80;;;4.60;96.20;;;;;;5073207;28;20207;-84
2021/03/20 02:15:12;;;;;;;14.27;10.63;;;4.50;96.50;;;;;;5073317;28;20176;-77
2021/03/20 02:18:01;;;;;;;17.23;10.97;;;4.60;96.00;;;;;;5055157;28;20644;-85
2021/03/20 02:20:29;;;;;;;13.53;10.57;;;4.50;96.20;;;;;;5073250;28;20160;-84
2021/03/20 02:23:07;;;;;;;16.23;10.73;;;4.50;96.30;;;;;;5073115;28;20168;-82
2021/03/20 02:25:48;;;;;;;14.20;11.00;;;4.50;96.70;;;;;;5073017;28;20269;-77
2021/03/20 02:28:39;;;;;;;15.83;10.40;;;4.50;96.70;;;;;;5055413;28;20172;-81
2021/03/20 02:31:21;;;;;;;13.30;10.40;;;4.50;96.70;;;;;;5073246;28;20247;-82
2021/03/20 02:34:02;;;;;;;14.07;10.70;;;4.50;96.70;;;;;;5073450;28;20168;-79
2021/03/20 02:36:53;;;;;;;17.23;9.40;;;4.50;96.50;;;;;;5073344;28;20168;-87
2021/03/20 02:39:23;;;;;;;17.63;10.97;;;4.50;96.30;;;;;;5073355;28;20181;-85
2021/03/20 02:42:30;;;;;;;14.40;10.00;;;4.50;96.20;;;;;;5076826;28;20198;-78
2021/03/20 02:45:05;;;;;;;17.27;11.10;;;4.50;96.10;;;;;;5058930;28;20207;-78
2021/03/20 02:47:41;;;;;;;15.77;10.70;;;4.50;96.40;;;;;;5077387;28;20168;-78
2021/03/20 02:50:18;;;;;;;14.57;10.17;;;4.40;96.10;;;;;;5059176;28;20172;-79
2021/03/20 02:52:58;;;;;;;16.13;10.90;;;4.40;96.40;;;;;;5077193;28;20170;-83
2021/03/20 02:55:38;;;;;;;14.97;10.90;;;4.30;96.40;;;;;;5077033;28;20184;-78
2021/03/20 02:58:12;;;;;;;12.50;10.77;;;4.20;96.70;;;;;;5076742;28;20195;-79
2021/03/20 03:00:54;;;;;;;15.00;11.87;;;4.20;97.10;;;;;;5078519;28;20169;-79
2021/03/20 03:03:23;;;;;;;16.93;12.03;;;4.20;97.20;;;;;;5078756;28;20243;-80
2021/03/20 03:05:58;;;;;;;18.23;11.53;;;4.10;97.50;;;;;;5082114;28;20253;-85
2021/03/20 03:08:27;;;;;;;13.23;11.47;;;4.00;97.70;;;;;;5078116;28;20616;-85
2021/03/20 03:11:05;;;;;;;16.10;12.10;;;4.00;97.80;;;;;;5077187;28;20172;-81
2021/03/20 03:13:36;;;;;;;18.03;12.70;;;4.00;97.80;;;;;;5076449;28;20183;-83
2021/03/20 03:16:14;;;;;;;16.43;12.43;;;4.00;97.80;;;;;;5058875;28;20263;-86
2021/03/20 03:18:48;;;;;;;16.23;12.10;;;4.00;98.00;;;;;;5076547;28;20172;-86
2021/03/20 03:21:15;;;;;;;14.03;12.17;;;3.90;98.00;;;;;;5076672;28;20173;-79
2021/03/20 03:23:42;;;;;;;16.50;12.77;;;3.90;98.30;;;;;;5058220;28;20184;-81
2021/03/20 03:26:19;;;;;;;17.53;13.27;;;3.90;98.40;;;;;;5058430;28;20192;-78
2021/03/20 03:28:55;;;;;;;19.03;13.30;;;3.90;98.60;;;;;;5076314;28;20164;-82
2021/03/20 03:31:58;;;;;;;17.83;12.07;;;3.80;98.70;;;;;;5076554;28;20168;-85
2021/03/20 03:34:38;;;;;;;17.43;13.60;;;3.80;98.90;;;;;;5071221;28;20739;-82
2021/03/20 03:37:10;;;;;;;18.70;13.40;;;3.80;99.10;;;;;;5076090;28;20176;-86
2021/03/20 03:39:52;;;;;;;17.40;13.80;;;3.80;99.10;;;;;;5075937;28;20168;-78
2021/03/20 03:42:20;;;;;;;16.43;13.50;;;3.80;99.10;;;;;;5075632;28;20195;-81
2021/03/20 03:44:48;;;;;;;17.67;13.37;;;3.70;99.40;;;;;;5075853;28;20211;-84
2021/03/20 03:47:17;;;;;;;20.90;14.83;;;3.70;99.30;;;;;;5075747;28;20193;-78
2021/03/20 03:49:43;;;;;;;17.63;14.43;;;3.70;99.30;;;;;;5075625;28;20172;-77
2021/03/20 03:52:11;;;;;;;18.13;13.80;;;3.80;99.50;;;;;;5074986;28;20274;-82
2021/03/20 03:54:37;;;;;;;22.00;14.37;;;3.80;99.50;;;;;;5075774;28;20164;-80
2021/03/20 03:57:28;;;;;;;17.33;14.57;;;3.80;99.40;;;;;;5075565;28;20164;-85
2021/03/20 04:00:06;;;;;;;16.43;14.07;;;3.70;99.30;;;;;;5075739;28;20153;-77
2021/03/20 04:03:05;;;;;;;22.43;13.97;;;3.70;99.40;;;;;;5058016;28;20206;-85
2021/03/20 04:05:34;;;;;;;17.87;14.10;;;3.70;99.60;;;;;;5075526;28;20239;-78
2021/03/20 04:08:26;;;;;;;21.87;15.53;;;3.70;99.50;;;;;;5075496;28;20184;-78
2021/03/20 04:10:53;;;;;;;19.50;14.27;;;3.70;99.80;;;;;;5075126;28;20234;-77
2021/03/20 04:13:36;;;;;;;18.43;13.63;;;3.60;99.90;;;;;;5075477;28;20168;-78
2021/03/20 04:16:12;;;;;;;16.80;13.77;;;3.70;99.90;;;;;;5075451;28;20165;-78
2021/03/20 04:18:58;;;;;;;18.30;15.33;;;3.60;99.80;;;;;;5075272;28;20171;-79
2021/03/20 04:21:27;;;;;;;22.40;14.67;;;3.60;99.90;;;;;;5074991;28;20632;-77
2021/03/20 04:24:00;;;;;;;20.03;14.50;;;3.70;99.90;;;;;;5075051;28;20263;-77
2021/03/20 04:26:47;;;;;;;20.70;15.37;;;3.60;99.90;;;;;;5075014;28;20635;-77
2021/03/20 04:29:34;;;;;;;19.80;14.37;;;3.60;99.90;;;;;;5057285;28;20221;-79
2021/03/20 04:32:09;;;;;;;19.87;15.07;;;3.60;99.80;;;;;;5057372;28;20172;-77
2021/03/20 04:35:05;;;;;;;17.93;14.50;;;3.60;99.90;;;;;;5075188;28;20217;-79
2021/03/20 04:37:35;;;;;;;16.70;14.90;;;3.50;99.90;;;;;;5075044;28;20206;-77
2021/03/20 04:40:04;;;;;;;20.13;15.07;;;3.50;99.90;;;;;;5074795;28;20234;-85
2021/03/20 04:42:33;;;;;;;22.00;16.07;;;3.50;99.90;;;;;;5074735;28;20690;-76
2021/03/20 04:45:25;;;;;;;20.30;15.47;;;3.50;99.90;;;;;;5058691;28;20572;-77
2021/03/20 04:47:54;;;;;;;18.90;15.67;;;3.50;99.90;;;;;;5077170;28;20188;-81
2021/03/20 04:50:23;;;;;;;20.20;15.97;;;3.50;99.90;;;;;;5078565;28;20172;-77
2021/03/20 04:52:52;;;;;;;21.43;15.67;;;3.50;99.90;;;;;;5078108;28;20213;-79
2021/03/20 04:55:18;;;;;;;20.37;16.30;;;3.50;99.90;;;;;;5079699;28;20172;-81
2021/03/20 04:58:23;;;;;;;21.07;16.50;;;3.40;99.90;;;;;;5079498;28;20214;-86
2021/03/20 05:00:54;;;;;;;20.10;15.63;;;3.50;99.90;;;;;;5046596;28;20180;-77
2021/03/20 05:03:41;;;;;;;20.83;16.50;;;3.40;99.90;;;;;;5074078;28;20643;-77
2021/03/20 05:06:12;;;;;;;22.57;17.53;;;3.40;99.90;;;;;;5074104;28;20204;-78
2021/03/20 05:08:51;;;;;;;21.33;16.47;;;3.30;99.90;;;;;;5056035;28;20184;-78
2021/03/20 05:11:38;;;;;;;20.77;16.83;;;3.30;99.90;;;;;;5074351;28;20241;-77
2021/03/20 05:14:17;;;;;;;20.30;16.37;;;3.30;99.90;;;;;;5074383;28;20180;-85
2021/03/20 05:16:49;;;;;;;20.97;17.13;;;3.30;99.90;;;;;;5056323;28;20179;-78
2021/03/20 05:19:16;;;;;;;19.30;15.60;;;3.20;99.90;;;;;;5074322;28;20164;-80
2021/03/20 05:21:44;;;;;;;23.33;18.03;;;3.20;99.90;;;;;;5074083;28;20172;-77
2021/03/20 05:24:16;;;;;;;22.87;17.40;;;3.20;99.90;;;;;;5076001;28;20670;-77
2021/03/20 05:26:41;;;;;;;21.37;17.63;;;3.20;99.90;;;;;;5073556;28;20262;-79
2021/03/20 05:29:07;;;;;;;24.47;17.53;;;3.20;99.90;;;;;;5073901;28;20247;-78
2021/03/20 05:31:33;;;;;;;23.30;18.30;;;3.10;99.90;;;;;;5073862;28;20164;-86
2021/03/20 05:34:00;;;;;;;21.27;16.87;;;3.10;99.90;;;;;;5074078;28;20164;-85
2021/03/20 05:36:26;;;;;;;21.70;18.50;;;3.10;99.90;;;;;;5074693;28;20195;-77
2021/03/20 05:38:51;;;;;;;22.67;18.83;;;3.00;99.90;;;;;;5073764;28;20247;-84
2021/03/20 05:41:26;;;;;;;26.87;17.70;;;3.00;99.90;;;;;;5056305;28;20610;-81
2021/03/20 05:43:55;;;;;;;22.13;17.53;;;3.00;99.90;;;;;;5073497;28;20254;-79
2021/03/20 05:46:49;;;;;;;24.60;18.30;;;3.00;99.90;;;;;;5073435;28;20192;-77
2021/03/20 05:49:34;;;;;;;24.67;18.63;;;3.10;99.90;;;;;;5046816;28;20172;-79
2021/03/20 05:52:14;;;;;;;22.40;17.43;;;3.00;99.90;;;;;;5073974;28;20172;-86
2021/03/20 05:54:42;;;;;;;23.30;18.00;;;3.00;99.90;;;;;;5074677;28;20170;-77
2021/03/20 05:57:17;;;;;;;23.27;18.43;;;3.00;99.90;;;;;;5074217;28;20195;-78
2021/03/20 06:00:20;;;;;;;25.10;17.33;;;3.00;99.90;;;;;;5073375;28;20159;-84
2021/03/20 06:03:27;;;;;;;22.60;18.63;;;3.00;99.90;;;;;;5073203;28;20176;-81
2021/03/20 06:06:04;;;;;;;25.80;18.63;;;2.90;99.90;;;;;;5073290;28;20523;-81
2021/03/20 06:08:48;;;;;;;27.17;19.27;;;3.00;99.90;;;;;;5073048;28;20163;-80
2021/03/20 06:11:42;;;;;;;30.33;20.10;;;2.90;99.90;;;;;;5072918;28;20179;-83
2021/03/20 06:14:45;;;;;;;25.07;19.53;;;2.90;99.90;;;;;;5073026;28;20576;-78
2021/03/20 06:17:49;;;;;;;23.00;18.80;;;2.90;99.90;;;;;;5072918;28;20175;-76
2021/03/20 06:20:37;;;;;;;24.90;19.10;;;2.90;99.90;;;;;;5017774;28;20184;-84
2021/03/20 06:23:06;;;;;;;27.57;19.10;;;2.90;99.90;;;;;;5054665;28;20176;-81
2021/03/20 06:25:59;;;;;;;24.37;18.63;;;3.00;99.90;;;;;;5073029;28;20212;-79
2021/03/20 06:28:59;;;;;;;25.37;18.97;;;2.90;99.90;;;;;;5073218;28;20283;-77
2021/03/20 06:31:53;;;;;;;21.90;18.57;;;3.00;99.90;;;;;;5055307;28;20190;-83
2021/03/20 06:34:21;;;;;;;22.43;18.50;;;3.10;99.90;;;;;;5067755;28;20188;-78
2021/03/20 06:36:52;;;;;;;24.53;18.57;;;3.10;99.90;;;;;;5054647;28;20613;-77
2021/03/20 06:39:23;;;;;;;21.07;18.37;;;3.10;99.90;;;;;;5072837;28;20176;-80
2021/03/20 06:41:56;;;;;;;26.40;19.27;;;3.00;99.90;;;;;;5072842;28;20215;-77
2021/03/20 06:44:29;;;;;;;24.50;19.13;;;3.00;99.90;;;;;;5072922;28;20660;-85
2021/03/20 06:46:56;;;;;;;22.53;18.70;;;3.00;99.90;;;;;;5072903;28;20592;-84
2021/03/20 06:49:48;;;;;;;22.57;18.30;;;3.00;99.90;;;;;;5072949;28;20165;-80
2021/03/20 06:52:20;;;;;;;25.77;19.33;;;3.00;99.90;;;;;;5020981;28;20229;-78
2021/03/20 06:54:52;;;;;;;22.67;19.47;;;3.00;99.90;;;;;;5072993;28;20529;-77
2021/03/20 06:57:18;;;;;;;26.60;20.73;;;3.00;99.90;;;;;;5072835;28;20164;-78
2021/03/20 06:59:44;;;;;;;24.80;19.30;;;3.00;99.90;;;;;;5072692;28;20226;-77
2021/03/20 07:03:03;;;;;;;22.57;19.50;;;3.10;99.90;;;;;;5054620;28;20202;-80
2021/03/20 07:05:54;;;;;;;25.90;19.30;;;3.10;99.90;;;;;;4971823;28;20237;-82
2021/03/20 07:08:29;;;;;;;23.87;18.73;;;3.20;99.90;;;;;;5072673;28;20169;-85
2021/03/20 07:10:55;;;;;;;25.67;20.57;;;3.30;99.90;;;;;;5072772;28;20175;-83
2021/03/20 07:13:44;;;;;;;23.73;18.87;;;3.30;99.90;;;;;;5054878;28;20192;-81
2021/03/20 07:16:16;;;;;;;25.67;19.17;;;3.30;99.80;;;;;;5072592;28;20628;-77
2021/03/20 07:19:09;;;;;;;26.83;19.80;;;3.30;99.50;;;;;;5072337;28;20238;-84
2021/03/20 07:21:40;;;;;;;25.80;18.13;;;3.20;99.80;;;;;;5054765;28;20191;-79
2021/03/20 07:24:17;;;;;;;24.10;18.27;;;3.30;99.40;;;;;;5054164;28;20184;-81
2021/03/20 07:26:58;;;;;;;27.20;20.40;;;3.20;99.60;;;;;;5072680;28;20262;-83
2021/03/20 07:29:47;;;;;;;24.30;19.67;;;3.30;99.90;;;;;;5076210;28;20160;-81
2021/03/20 07:32:25;;;;;;;26.40;20.27;;;3.30;99.70;;;;;;5076078;28;20182;-81
2021/03/20 07:34:55;;;;;;;27.60;19.43;;;3.50;99.40;;;;;;5075855;28;20168;-87
2021/03/20 07:37:22;;;;;;;24.47;19.57;;;3.40;98.60;;;;;;5058159;28;20266;-85
2021/03/20 07:39:48;;;;;;;22.53;19.53;;;3.40;98.60;;;;;;5076130;28;20169;-80
2021/03/20 07:42:36;;;;;;;22.80;19.13;;;3.40;98.60;;;;;;5075733;28;20175;-86
2021/03/20 07:45:24;;;;;;;24.60;19.57;;;3.40;98.80;;;;;;5075362;28;20200;-85
2021/03/20 07:47:53;;;;;;;22.97;18.30;;;3.40;98.90;;;;;;5075492;28;20247;-79
2021/03/20 07:50:22;;;;;;;21.93;19.10;;;3.40;98.60;;;;;;5075647;28;20537;-78
2021/03/20 07:53:10;;;;;;;22.93;18.40;;;3.50;98.50;;;;;;5075923;28;20248;-82
2021/03/20 07:55:57;;;;;;;21.13;18.50;;;3.50;97.80;;;;;;5075974;28;20179;-85
2021/03/20 07:58:26;;;;;;;22.00;16.87;;;3.50;97.30;;;;;;5075959;28;20179;-85
2021/03/20 08:01:00;;;;;;;21.70;19.10;;;3.60;97.60;;;;;;5075737;28;20192;-83
2021/03/20 08:03:32;;;;;;;20.93;18.53;;;3.60;97.50;;;;;;5075447;28;20182;-81
2021/03/20 08:06:22;;;;;;;23.10;18.67;;;3.80;97.20;;;;;;5074962;28;20195;-81
2021/03/20 08:08:55;;;;;;;19.47;16.23;;;3.80;96.10;;;;;;5057296;28;20176;-77
2021/03/20 08:11:39;;;;;;;23.97;17.53;;;3.90;95.30;;;;;;5057240;28;20626;-81
2021/03/20 08:14:12;;;;;;;20.27;16.87;;;3.90;94.50;;;;;;5075037;28;20172;-80
2021/03/20 08:16:40;;;;;;;21.90;17.63;;;3.90;94.50;;;;;;5074930;28;20164;-79
2021/03/20 08:19:12;;;;;;;24.47;18.37;;;4.00;94.90;;;;;;5074858;28;20243;-79
2021/03/20 08:21:41;;;;;;;22.20;17.37;;;4.00;94.50;;;;;;5075431;28;20168;-85
2021/03/20 08:24:23;;;;;;;21.33;17.33;;;4.00;94.30;;;;;;5056865;28;20324;-83
2021/03/20 08:26:49;;;;;;;20.80;17.77;;;4.10;93.80;;;;;;5074854;28;20249;-83
2021/03/20 08:29:39;;;;;;;20.77;17.97;;;4.20;93.80;;;;;;5056769;28;20259;-80
2021/03/20 08:32:23;;;;;;;21.07;17.03;;;4.40;92.30;;;;;;5074089;28;20176;-83
2021/03/20 08:34:58;;;;;;;22.10;17.90;;;4.50;91.50;;;;;;5074816;28;20251;-82
2021/03/20 08:37:36;;;;;;;22.07;16.77;;;4.50;91.20;;;;;;5056671;28;20164;-78
2021/03/20 08:40:19;;;;;;;20.80;16.27;;;4.50;90.20;;;;;;5074393;28;20531;-87
2021/03/20 08:43:07;;;;;;;21.50;16.00;;;4.50;90.00;;;;;;5074767;28;20160;-88
2021/03/20 08:45:38;;;;;;;20.30;16.77;;;4.60;91.00;;;;;;5057439;28;20208;-83
2021/03/20 08:48:10;;;;;;;20.57;17.53;;;4.50;90.60;;;;;;5074729;28;20471;-85
2021/03/20 08:50:40;;;;;;;21.93;14.93;;;4.60;90.40;;;;;;5077070;28;20186;-84
2021/03/20 08:53:20;;;;;;;18.40;16.07;;;4.70;88.10;;;;;;5056040;28;20276;-81
2021/03/20 08:56:25;;;;;;;18.00;15.43;;;4.70;88.90;;;;;;5056429;28;20182;-84
2021/03/20 08:59:00;;;;;;;20.80;15.70;;;4.80;86.30;;;;;;5055866;28;20644;-79
2021/03/20 09:01:39;;;;;;;20.43;18.23;;;5.00;86.60;;;;;;5073551;28;20172;-81
2021/03/20 09:04:16;;;;;;;19.63;14.97;;;5.10;83.00;;;;;;5073935;28;20164;-81
2021/03/20 09:06:54;;;;;;;17.80;15.07;;;5.20;79.00;;;;;;5055543;28;20534;-78
2021/03/20 09:09:40;;;;;;;19.17;15.57;;;5.20;75.80;;;;;;5073653;28;20168;-82
2021/03/20 09:12:24;;;;;;;18.47;15.83;;;5.40;78.00;;;;;;5072765;28;20164;-87
2021/03/20 09:14:50;;;;;;;16.83;15.13;;;5.70;73.20;;;;;;5055674;28;20164;-79
2021/03/20 09:17:25;;;;;;;16.80;14.50;;;5.70;68.40;;;;;;5073888;28;20169;-78
2021/03/20 09:19:59;;;;;;;20.43;14.70;;;5.80;66.80;;;;;;5055379;28;20168;-81
2021/03/20 09:22:30;;;;;;;16.70;14.03;;;5.90;63.60;;;;;;5073314;28;20160;-81
2021/03/20 09:24:59;;;;;;;18.27;14.17;;;6.00;62.30;;;;;;5080014;28;20203;-80
2021/03/20 09:28:01;;;;;;;15.93;13.70;;;5.90;60.40;;;;;;5087352;28;20168;-79
2021/03/20 09:30:44;;;;;;;15.70;13.23;;;5.90;58.30;;;;;;5072754;28;20310;-79
2021/03/20 09:33:19;;;;;;;16.00;11.53;;;5.80;57.50;;;;;;5058164;28;20272;-80
2021/03/20 09:35:47;;;;;;;14.33;11.17;;;5.70;52.40;;;;;;5073096;28;20338;-81
2021/03/20 09:38:33;;;;;;;13.60;11.93;;;5.70;47.30;;;;;;5054716;28;20538;-84
2021/03/20 09:41:02;;;;;;;15.37;12.37;;;5.70;46.50;;;;;;5058169;28;20175;-85
2021/03/20 09:43:37;;;;;;;12.73;10.07;;;5.90;45.30;;;;;;5072439;28;20167;-78
2021/03/20 09:46:24;;;;;;;13.37;11.40;;;6.10;30.20;;;;;;5072348;28;20256;-79
2021/03/20 09:48:50;;;;;;;14.00;11.90;;;6.30;29.40;;;;;;5073169;28;20624;-79
2021/03/20 09:51:50;;;;;;;14.73;11.13;;;6.40;37.30;;;;;;5054521;28;20228;-81
2021/03/20 09:54:22;;;;;;;17.07;11.90;;;6.40;32.30;;;;;;5073675;28;20198;-86
2021/03/20 09:56:49;;;;;;;13.67;11.20;;;6.50;29.80;;;;;;5073122;28;20600;-79
2021/03/20 09:59:30;;;;;;;13.63;11.10;;;6.60;28.70;;;;;;5076145;28;20666;-84
2021/03/20 10:02:28;;;;;;;11.80;10.47;;;6.70;31.40;;;;;;5072905;28;20233;-78
2021/03/20 10:05:27;;;;;;;12.00;9.90;;;6.70;26.50;;;;;;5050919;28;20215;-78
2021/03/20 10:07:57;;;;;;;14.40;11.40;;;6.60;17.20;;;;;;5054946;28;20207;-78
2021/03/20 10:10:23;;;;;;;12.13;10.87;;;6.60;22.90;;;;;;5072778;28;20571;-83
2021/03/20 10:12:48;;;;;;;12.37;10.00;;;6.80;22.90;;;;;;5072434;28;20168;-85
2021/03/20 10:15:23;;;;;;;10.73;8.93;;;6.90;12.30;;;;;;5072535;28;20651;-83
2021/03/20 10:18:05;;;;;;;11.37;8.73;;;7.00;7.10;;;;;;5072309;28;20535;-82
2021/03/20 10:20:45;;;;;;;10.33;8.50;;;6.80;1.00;;;;;;5072468;28;20175;-79
2021/03/20 10:23:26;;;;;;;9.10;7.97;;;6.80;1.00;;;;;;5072387;28;20168;-79
2021/03/20 10:25:57;;;;;;;8.00;7.20;;;6.80;1.00;;;;;;5054927;28;20223;-87
2021/03/20 10:28:29;;;;;;;9.53;7.43;;;6.70;1.00;;;;;;5072127;28;20164;-78
2021/03/20 10:31:04;;;;;;;9.53;8.30;;;6.80;1.00;;;;;;5072345;28;20639;-86
2021/03/20 10:33:36;;;;;;;10.33;7.70;;;7.00;1.00;;;;;;5089277;28;20170;-87
2021/03/20 10:36:16;;;;;;;8.40;7.50;;;7.20;1.00;;;;;;5075991;28;20246;-87
2021/03/20 10:38:47;;;;;;;7.53;6.57;;;7.20;1.00;;;;;;5096682;28;20164;-83
2021/03/20 10:41:24;;;;;;;9.20;7.43;;;7.30;1.00;;;;;;5075463;28;20259;-85
2021/03/20 10:43:54;;;;;;;8.90;6.90;;;7.40;1.00;;;;;;5092069;28;20159;-82
2021/03/20 10:46:24;;;;;;;7.80;6.30;;;7.30;1.00;;;;;;5074375;28;20692;-86
2021/03/20 10:48:53;;;;;;;7.37;5.73;;;7.40;1.00;;;;;;5074645;28;20527;-83
2021/03/20 10:51:19;;;;;;;6.53;5.27;;;7.40;1.00;;;;;;5092165;28;20225;-82
2021/03/20 10:53:48;;;;;;;6.57;5.17;;;7.40;1.00;;;;;;5091316;28;20171;-84
2021/03/20 10:56:25;;;;;;;5.70;5.10;;;7.60;1.00;;;;;;5073073;28;20187;-80
2021/03/20 10:58:51;;;;;;;5.87;4.57;;;7.60;1.00;;;;;;5074493;28;20167;-86
2021/03/20 11:01:36;;;;;;;6.30;4.97;;;7.60;1.00;;;;;;5074979;28;20216;-86
2021/03/20 11:04:03;;;;;;;8.27;5.40;;;7.70;1.00;;;;;;5096300;28;20163;-84
2021/03/20 11:06:30;;;;;;;7.20;5.23;;;7.70;1.00;;;;;;5096627;28;20171;-84
2021/03/20 11:09:24;;;;;;;6.10;4.93;;;7.60;1.00;;;;;;5097437;28;20183;-87
2021/03/20 11:11:58;;;;;;;7.00;5.60;;;7.50;1.00;;;;;;5098026;28;20174;-84
2021/03/20 11:14:24;;;;;;;5.37;4.73;;;7.70;1.00;;;;;;5096415;28;21142;-87
2021/03/20 11:17:01;;;;;;;8.20;5.50;;;7.80;1.00;;;;;;5096644;28;20163;-84
2021/03/20 11:19:35;;;;;;;6.30;4.13;;;7.90;1.00;;;;;;5096546;28;20640;-86
2021/03/20 11:22:26;;;;;;;5.30;4.50;;;7.80;99.90;;;;;;5097353;28;20167;-78
2021/03/20 11:25:23;;;;;;;7.03;5.10;;;7.70;1.00;;;;;;5097474;28;20210;-80
2021/03/20 11:28:29;;;;;;;5.87;4.30;;;7.90;1.00;;;;;;5092736;28;20192;-79
2021/03/20 11:30:58;;;;;;;6.40;5.00;;;7.90;99.90;;;;;;5058310;28;20656;-80
2021/03/20 11:33:28;;;;;;;6.03;4.20;;;8.00;99.90;;;;;;5065165;28;20184;-88
2021/03/20 11:35:59;;;;;;;6.00;5.40;;;8.10;99.90;;;;;;5078509;28;20503;-81
2021/03/20 11:38:28;;;;;;;6.63;4.70;;;8.10;99.90;;;;;;5061600;28;20168;-80
2021/03/20 11:40:54;;;;;;;5.33;4.17;;;8.10;99.90;;;;;;5061256;28;20176;-82
2021/03/20 11:43:47;;;;;;;6.77;4.60;;;8.10;99.90;;;;;;5077859;28;20167;-82
2021/03/20 11:46:22;;;;;;;7.00;4.60;;;8.10;99.90;;;;;;5075886;28;20301;-87
2021/03/20 11:48:59;;;;;;;5.20;4.33;;;8.30;99.90;;;;;;5057787;28;20225;-88
2021/03/20 11:51:35;;;;;;;5.63;4.73;;;8.30;99.90;;;;;;5057364;28;20544;-78
2021/03/20 11:54:05;;;;;;;7.20;4.67;;;8.30;99.90;;;;;;5057384;28;20534;-80
2021/03/20 11:56:34;;;;;;;6.17;4.43;;;8.40;99.90;;;;;;5075354;28;20187;-79
2021/03/20 11:59:25;;;;;;;5.80;4.27;;;8.80;99.90;;;;;;5075672;28;20203;-78
2021/03/20 12:01:51;;;;;;;6.03;4.17;;;9.00;1.00;;;;;;5074806;28;20172;-84
2021/03/20 12:04:25;;;;;;;6.33;3.43;;;9.20;1.00;;;;;;5075059;28;20628;-83
2021/03/20 12:06:52;;;;;;;6.50;4.53;;;9.10;1.00;;;;;;5057914;28;20171;-83
2021/03/20 12:09:23;;;;;;;4.87;4.00;;;8.90;63.70;;;;;;5081445;28;20228;-79
2021/03/20 12:11:50;;;;;;;7.80;4.60;;;8.90;99.90;;;;;;5080997;28;20179;-84
2021/03/20 12:14:42;;;;;;;5.50;4.90;;;9.00;1.00;;;;;;5080280;28;20182;-79
2021/03/20 12:17:22;;;;;;;8.40;4.87;;;9.10;99.90;;;;;;5075778;28;20638;-84
2021/03/20 12:19:54;;;;;;;5.70;4.10;;;9.10;1.00;;;;;;5074800;28;20172;-86
2021/03/20 12:22:47;;;;;;;5.33;4.00;;;9.10;1.00;;;;;;5056587;28;20172;-78
2021/03/20 12:25:34;;;;;;;5.63;4.40;;;9.10;1.00;;;;;;5056230;28;20302;-82
2021/03/20 12:28:26;;;;;;;6.50;4.40;;;8.80;99.90;;;;;;5074491;28;20168;-85
2021/03/20 12:31:20;;;;;;;5.60;3.80;;;8.90;99.90;;;;;;5063230;28;20271;-81
2021/03/20 12:33:47;;;;;;;5.13;3.73;;;9.00;99.90;;;;;;5093527;28;20628;-84
2021/03/20 12:36:35;;;;;;;5.47;3.97;;;9.30;1.00;;;;;;5096587;28;20171;-84
2021/03/20 12:39:01;;;;;;;7.87;4.63;;;9.40;1.00;;;;;;5095816;28;20639;-82
2021/03/20 12:41:30;;;;;;;7.03;3.80;;;9.10;1.00;;;;;;5094272;28;20184;-86
2021/03/20 12:44:40;;;;;;;4.60;3.50;;;9.00;1.00;;;;;;5094782;28;20163;-82
2021/03/20 12:47:06;;;;;;;4.60;3.30;;;8.80;1.00;;;;;;4992565;28;20233;-85
2021/03/20 12:49:34;;;;;;;5.33;3.37;;;8.90;1.00;;;;;;5079870;28;20182;-84
2021/03/20 12:52:14;;;;;;;3.57;2.97;;;9.10;1.00;;;;;;5094190;28;20175;-88
2021/03/20 12:54:43;;;;;;;3.37;2.50;;;9.30;1.00;;;;;;5094053;28;20526;-83
2021/03/20 12:57:29;;;;;;;5.20;3.33;;;9.30;27.40;;;;;;5093898;28;20175;-84
2021/03/20 12:59:55;;;;;;;5.23;3.40;;;9.30;99.90;;;;;;5094507;28;20259;-80
2021/03/20 13:02:21;;;;;;;5.27;3.20;;;9.30;1.00;;;;;;5093748;28;20179;-79
2021/03/20 13:04:49;;;;;;;3.43;3.03;;;9.30;99.90;;;;;;5093685;28;20199;-84
2021/03/20 13:07:15;;;;;;;4.03;3.03;;;9.20;36.00;;;;;;5094113;28;20198;-81
2021/03/20 13:09:41;;;;;;;4.43;3.30;;;9.20;1.00;;;;;;5093993;28;20168;-78
2021/03/20 13:12:10;;;;;;;4.87;3.77;;;9.10;99.90;;;;;;5093950;28;20195;-85
2021/03/20 13:14:36;;;;;;;7.60;3.93;;;9.20;99.90;;;;;;5075575;28;20172;-79
2021/03/20 13:17:04;;;;;;;4.30;3.80;;;9.20;1.00;;;;;;5094024;28;20217;-86
2021/03/20 13:19:30;;;;;;;6.83;3.67;;;9.20;99.90;;;;;;5093359;28;20657;-85
2021/03/20 13:21:56;;;;;;;4.37;3.33;;;9.40;99.90;;;;;;5093801;28;20160;-85
2021/03/20 13:24:22;;;;;;;6.80;3.70;;;9.40;1.00;;;;;;5093477;28;20180;-83
2021/03/20 13:26:47;;;;;;;4.53;3.40;;;9.40;1.00;;;;;;5093108;28;20652;-88